createdAt,value
2022-10-05T00:01:32.366Z,1.60
2022-10-05T00:04:13.719Z,1.33
2022-10-05T00:06:43.977Z,1.17
2022-10-05T00:09:17.671Z,2.67
2022-10-05T00:11:47.286Z,1.85
2022-10-05T00:14:21.910Z,1.23
2022-10-05T00:16:51.482Z,1.10
2022-10-05T00:19:25.544Z,1.67
2022-10-05T00:21:57.427Z,1.52
2022-10-05T00:24:26.699Z,0.90
2022-10-05T00:26:58.239Z,1.13
2022-10-05T00:29:27.725Z,1.50
2022-10-05T00:31:56.908Z,1.75
2022-10-05T00:34:29.252Z,1.20
2022-10-05T00:36:59.641Z,1.20
2022-10-05T00:39:30.125Z,1.15
2022-10-05T00:42:19.167Z,1.70
2022-10-05T00:44:53.720Z,1.35
2022-10-05T00:47:38.453Z,2.28
2022-10-05T00:50:23.505Z,0.90
2022-10-05T00:53:01.835Z,1.27
2022-10-05T00:55:43.936Z,1.23
2022-10-05T00:58:23.777Z,1.80
2022-10-05T01:01:00.602Z,1.30
2022-10-05T01:03:41.214Z,2.45
2022-10-05T01:06:22.649Z,1.25
2022-10-05T01:08:59.580Z,2.05
2022-10-05T01:11:33.787Z,1.30
2022-10-05T01:14:09.079Z,3.17
2022-10-05T01:16:47.929Z,1.52
2022-10-05T01:19:44.940Z,1.38
2022-10-05T01:22:28.523Z,1.17
2022-10-05T01:25:13.925Z,1.40
2022-10-05T01:27:58.033Z,1.50
2022-10-05T01:30:27.451Z,1.98
2022-10-05T01:33:02.893Z,1.35
2022-10-05T01:35:41.147Z,1.98
2022-10-05T01:38:21.793Z,2.45
2022-10-05T01:41:00.423Z,1.48
2022-10-05T01:43:39.286Z,1.20
2022-10-05T01:46:22.111Z,2.97
2022-10-05T01:49:01.208Z,1.30
2022-10-05T01:51:39.427Z,1.38
2022-10-05T01:54:18.725Z,1.00
2022-10-05T01:56:56.814Z,1.20
2022-10-05T01:59:38.556Z,1.05
2022-10-05T02:02:13.124Z,1.40
2022-10-05T02:05:03.590Z,1.48
2022-10-05T02:07:40.091Z,1.92
2022-10-05T02:10:19.220Z,3.83
2022-10-05T02:12:52.680Z,1.58
2022-10-05T02:15:28.599Z,1.35
2022-10-05T02:18:03.578Z,3.13
2022-10-05T02:20:35.869Z,0.98
2022-10-05T02:23:10.341Z,1.95
2022-10-05T02:25:43.084Z,2.25
2022-10-05T02:28:14.694Z,1.30
2022-10-05T02:30:51.661Z,1.95
2022-10-05T02:33:28.558Z,1.88
2022-10-05T02:36:03.239Z,1.65
2022-10-05T02:38:44.941Z,3.00
2022-10-05T02:41:24.908Z,1.35
2022-10-05T02:44:02.898Z,1.30
2022-10-05T02:46:43.215Z,1.65
2022-10-05T02:49:22.158Z,1.20
2022-10-05T02:51:58.265Z,1.35
2022-10-05T02:54:40.914Z,1.35
2022-10-05T02:57:21.231Z,1.85
2022-10-05T02:59:56.617Z,1.33
2022-10-05T03:02:31.883Z,1.27
2022-10-05T03:05:11.826Z,1.17
2022-10-05T03:07:49.716Z,1.02
2022-10-05T03:10:29.949Z,1.33
2022-10-05T03:13:06.917Z,1.25
2022-10-05T03:16:15.308Z,1.00
2022-10-05T03:18:57.649Z,1.73
2022-10-05T03:21:42.488Z,2.83
2022-10-05T03:24:36.938Z,1.15
2022-10-05T03:27:17.951Z,1.00
2022-10-05T03:29:52.018Z,1.48
2022-10-05T03:32:29.736Z,1.50
2022-10-05T03:35:08.139Z,1.90
2022-10-05T03:37:49.507Z,1.52
2022-10-05T03:40:28.448Z,2.28
2022-10-05T03:43:07.497Z,1.42
2022-10-05T03:45:43.594Z,1.25
2022-10-05T03:48:17.078Z,1.40
2022-10-05T03:51:00.379Z,1.27
2022-10-05T03:53:33.641Z,1.33
2022-10-05T03:56:08.140Z,0.98
2022-10-05T03:58:43.562Z,1.20
2022-10-05T04:01:18.571Z,1.42
2022-10-05T04:03:52.219Z,1.13
2022-10-05T04:06:26.972Z,1.30
2022-10-05T04:09:00.649Z,1.25
2022-10-05T04:11:35.189Z,1.10
2022-10-05T04:14:08.656Z,1.20
2022-10-05T04:16:44.877Z,1.05
2022-10-05T04:19:20.615Z,1.20
2022-10-05T04:21:54.729Z,1.27
2022-10-05T04:24:31.575Z,1.17
2022-10-05T04:27:04.565Z,1.35
2022-10-05T04:29:39.965Z,1.95
2022-10-05T04:32:30.731Z,1.20
2022-10-05T04:35:28.164Z,1.25
2022-10-05T04:38:09.656Z,1.05
2022-10-05T04:40:51.267Z,1.13
2022-10-05T04:43:27.146Z,1.92
2022-10-05T04:46:17.592Z,1.45
2022-10-05T04:49:00.040Z,2.00
2022-10-05T04:51:39.193Z,1.85
2022-10-05T04:54:24.204Z,1.77
2022-10-05T04:56:58.243Z,1.35
2022-10-05T04:59:53.729Z,0.90
2022-10-05T05:02:36.640Z,0.90
2022-10-05T05:05:29.074Z,0.95
2022-10-05T05:08:11.695Z,3.10
2022-10-05T05:11:15.908Z,1.75
2022-10-05T05:14:26.954Z,1.95
2022-10-05T05:17:13.114Z,4.72
2022-10-05T05:19:53.033Z,5.15
2022-10-05T05:22:30.362Z,1.52
2022-10-05T05:25:19.111Z,1.20
2022-10-05T05:27:55.779Z,3.60
2022-10-05T05:30:36.842Z,2.33
2022-10-05T05:33:19.429Z,8.70
2022-10-05T05:36:23.198Z,4.15
2022-10-05T05:39:09.680Z,9.70
2022-10-05T05:41:40.926Z,2.63
2022-10-05T05:44:23.871Z,6.13
2022-10-05T05:47:04.118Z,4.85
2022-10-05T05:49:51.141Z,2.90
2022-10-05T05:52:25.536Z,2.55
2022-10-05T05:54:59.709Z,1.13
2022-10-05T05:57:33.899Z,2.25
2022-10-05T06:00:08.901Z,2.92
2022-10-05T06:02:56.512Z,3.63
2022-10-05T06:05:32.662Z,1.23
2022-10-05T06:08:14.849Z,1.20
2022-10-05T06:10:50.879Z,4.30
2022-10-05T06:13:25.657Z,0.80
2022-10-05T06:16:06.513Z,1.75
2022-10-05T06:18:38.631Z,2.08
2022-10-05T06:21:18.253Z,2.85
2022-10-05T06:23:54.295Z,1.20
2022-10-05T06:26:38.708Z,2.65
2022-10-05T06:29:14.690Z,3.20
2022-10-05T06:32:04.102Z,1.00
2022-10-05T06:34:53.041Z,2.17
2022-10-05T06:37:38.118Z,2.08
2022-10-05T06:40:20.919Z,3.35
2022-10-05T06:43:07.095Z,3.25
2022-10-05T06:45:53.352Z,2.53
2022-10-05T06:48:47.643Z,1.30
2022-10-05T06:51:49.666Z,2.15
2022-10-05T06:54:36.869Z,1.60
2022-10-05T06:57:14.726Z,1.95
2022-10-05T06:59:51.939Z,2.60
2022-10-05T07:02:27.426Z,1.23
2022-10-05T07:05:32.494Z,4.03
2022-10-05T07:08:06.283Z,7.43
2022-10-05T07:10:44.295Z,3.05
2022-10-05T07:13:30.134Z,3.70
2022-10-05T07:16:06.747Z,3.08
2022-10-05T07:18:49.741Z,1.98
2022-10-05T07:21:35.787Z,3.13
2022-10-05T07:24:15.726Z,1.33
2022-10-05T07:26:47.659Z,1.77
2022-10-05T07:29:30.535Z,1.98
2022-10-05T07:32:08.845Z,2.25
2022-10-05T07:34:49.180Z,2.72
2022-10-05T07:37:42.944Z,2.65
2022-10-05T07:40:19.575Z,2.50
2022-10-05T07:43:15.263Z,1.10
2022-10-05T07:45:49.248Z,1.30
2022-10-05T07:48:22.506Z,2.78
2022-10-05T07:51:04.491Z,1.67
2022-10-05T07:53:39.620Z,4.32
2022-10-05T07:56:17.331Z,1.30
2022-10-05T07:58:50.570Z,1.50
2022-10-05T08:01:25.478Z,2.65
2022-10-05T08:04:04.120Z,2.55
2022-10-05T08:09:40.291Z,4.10
2022-10-05T08:12:21.577Z,4.22
2022-10-05T08:14:57.304Z,2.97
2022-10-05T08:17:34.242Z,3.42
2022-10-05T08:20:17.719Z,3.53
2022-10-05T08:22:53.811Z,4.97
2022-10-05T08:25:27.919Z,5.57
2022-10-05T08:28:05.288Z,11.00
2022-10-05T08:30:41.261Z,9.98
2022-10-05T08:33:16.060Z,7.07
2022-10-05T08:35:47.523Z,7.90
2022-10-05T08:38:18.910Z,6.03
2022-10-05T08:41:38.783Z,8.10
2022-10-05T08:44:49.528Z,6.65
2022-10-05T08:47:34.063Z,10.02
2022-10-05T08:50:26.611Z,4.82
2022-10-05T08:53:33.036Z,4.15
2022-10-05T08:56:28.977Z,5.40
2022-10-05T08:59:23.153Z,3.85
2022-10-05T09:02:16.224Z,4.85
2022-10-05T09:05:12.665Z,5.97
2022-10-05T09:08:07.380Z,5.35
2022-10-05T09:11:08.639Z,5.10
2022-10-05T09:14:07.750Z,3.75
2022-10-05T09:17:11.892Z,4.72
2022-10-05T09:20:18.317Z,5.68
2022-10-05T09:23:00.305Z,5.65
2022-10-05T09:25:44.569Z,4.38
2022-10-05T09:28:25.970Z,2.92
2022-10-05T09:31:11.186Z,5.45
2022-10-05T09:34:07.873Z,4.32
2022-10-05T09:37:23.063Z,6.00
2022-10-05T09:40:42.010Z,6.45
2022-10-05T09:43:40.659Z,3.50
2022-10-05T09:46:45.973Z,6.00
2022-10-05T09:49:59.927Z,3.63
2022-10-05T09:52:55.037Z,5.25
2022-10-05T09:56:07.009Z,4.10
2022-10-05T09:59:09.332Z,2.70
2022-10-05T10:02:05.728Z,3.38
2022-10-05T10:05:05.885Z,4.70
2022-10-05T10:08:00.674Z,6.35
2022-10-05T10:10:55.863Z,3.78
2022-10-05T10:14:00.261Z,3.78
2022-10-05T10:17:08.224Z,4.53
2022-10-05T10:20:03.691Z,3.40
2022-10-05T10:23:11.279Z,6.55
2022-10-05T10:26:17.520Z,7.63
2022-10-05T10:29:15.002Z,6.75
2022-10-05T10:32:09.839Z,7.07
2022-10-05T10:35:15.707Z,10.15
2022-10-05T10:38:22.366Z,4.50
2022-10-05T10:41:20.714Z,6.68
2022-10-05T10:44:41.146Z,5.60
2022-10-05T10:47:32.295Z,4.22
2022-10-05T10:50:42.287Z,5.28
2022-10-05T10:53:34.413Z,7.32
2022-10-05T10:56:24.127Z,5.63
2022-10-05T10:59:09.364Z,8.50
2022-10-05T11:01:46.858Z,6.65
2022-10-05T11:04:58.586Z,4.78
2022-10-05T11:08:00.661Z,5.32
2022-10-05T11:10:59.823Z,9.95
2022-10-05T11:14:02.850Z,8.98
2022-10-05T11:17:04.316Z,4.25
2022-10-05T11:20:04.509Z,7.47
2022-10-05T11:22:57.584Z,6.10
2022-10-05T11:25:48.386Z,3.67
2022-10-05T11:28:52.769Z,4.03
2022-10-05T11:32:00.003Z,4.55
2022-10-05T11:35:00.491Z,5.85
2022-10-05T11:37:56.360Z,6.32
2022-10-05T11:40:50.078Z,4.82
2022-10-05T11:43:53.836Z,9.65
2022-10-05T11:46:29.193Z,5.45
2022-10-05T11:49:16.736Z,4.95
2022-10-05T11:51:54.780Z,5.13
2022-10-05T11:55:09.883Z,4.30
2022-10-05T11:57:49.794Z,6.15
2022-10-05T12:00:21.427Z,8.63
2022-10-05T12:06:13.276Z,8.50
2022-10-05T12:08:55.474Z,3.10
2022-10-05T12:11:43.591Z,6.35
2022-10-05T12:14:22.371Z,4.18
2022-10-05T12:17:00.485Z,7.55
2022-10-05T12:19:36.761Z,3.78
2022-10-05T12:22:17.382Z,5.20
2022-10-05T12:25:06.770Z,5.20
2022-10-05T12:27:41.852Z,5.50
2022-10-05T12:30:17.244Z,5.32
2022-10-05T12:32:55.881Z,4.50
2022-10-05T12:35:47.750Z,3.50
2022-10-05T12:38:28.686Z,4.07
2022-10-05T12:41:09.248Z,3.80
2022-10-05T12:43:49.947Z,3.67
2022-10-05T12:46:29.030Z,4.63
2022-10-05T12:49:17.725Z,3.50
2022-10-05T12:51:53.951Z,3.67
2022-10-05T12:54:31.736Z,5.18
2022-10-05T12:57:07.058Z,6.40
2022-10-05T12:59:43.729Z,3.92
2022-10-05T13:02:26.171Z,4.85
2022-10-05T13:05:08.669Z,4.18
2022-10-05T13:07:51.105Z,5.10
2022-10-05T13:10:32.589Z,3.88
2022-10-05T13:13:24.984Z,4.35
2022-10-05T13:16:01.576Z,4.18
2022-10-05T13:18:38.711Z,4.07
2022-10-05T13:21:14.206Z,7.80
2022-10-05T13:23:57.111Z,7.05
2022-10-05T13:26:34.011Z,5.82
2022-10-05T13:29:14.354Z,7.03
2022-10-05T13:31:49.640Z,4.50
2022-10-05T13:34:29.500Z,7.47
2022-10-05T13:37:13.303Z,4.35
2022-10-05T13:39:55.763Z,3.78
2022-10-05T13:42:33.871Z,4.22
2022-10-05T13:45:11.929Z,6.10
2022-10-05T13:47:55.604Z,5.85
2022-10-05T13:50:32.691Z,7.25
2022-10-05T13:53:13.886Z,4.35
2022-10-05T13:55:48.553Z,7.82
2022-10-05T13:58:28.213Z,7.60
2022-10-05T14:01:01.527Z,5.70
2022-10-05T14:03:35.214Z,4.18
2022-10-05T14:06:12.048Z,5.63
2022-10-05T14:08:52.126Z,4.07
2022-10-05T14:11:31.414Z,5.53
2022-10-05T14:14:13.751Z,7.55
2022-10-05T14:16:52.174Z,4.80
2022-10-05T14:19:28.146Z,4.65
2022-10-05T14:22:02.352Z,4.57
2022-10-05T14:24:44.235Z,5.10
2022-10-05T14:27:22.353Z,5.40
2022-10-05T14:29:59.920Z,4.40
2022-10-05T14:32:33.075Z,4.95
2022-10-05T14:35:15.832Z,5.72
2022-10-05T14:37:50.528Z,6.28
2022-10-05T14:40:26.208Z,10.98
2022-10-05T14:42:56.369Z,11.25
2022-10-05T14:45:29.282Z,8.00
2022-10-05T14:48:11.645Z,8.88
2022-10-05T14:50:55.183Z,9.05
2022-10-05T14:53:26.508Z,8.02
2022-10-05T14:56:32.394Z,20.27
2022-10-05T14:59:23.820Z,8.27
2022-10-05T15:01:58.963Z,7.30
2022-10-05T15:04:43.051Z,6.55
2022-10-05T15:07:24.477Z,9.05
2022-10-05T15:10:05.419Z,8.85
2022-10-05T15:12:36.943Z,5.97
2022-10-05T15:15:19.136Z,5.70
2022-10-05T15:17:53.895Z,4.85
2022-10-05T15:20:28.015Z,9.25
2022-10-05T15:23:08.615Z,6.43
2022-10-05T15:25:48.521Z,5.35
2022-10-05T15:28:26.324Z,8.73
2022-10-05T15:31:03.038Z,5.38
2022-10-05T15:33:38.256Z,6.88
2022-10-05T15:36:13.274Z,7.93
2022-10-05T15:39:00.200Z,7.05
2022-10-05T15:41:53.281Z,4.57
2022-10-05T15:44:30.647Z,5.40
2022-10-05T15:47:07.343Z,4.80
2022-10-05T15:49:44.162Z,4.07
2022-10-05T15:52:22.880Z,5.53
2022-10-05T15:55:24.455Z,4.55
2022-10-05T15:58:08.677Z,7.10
2022-10-05T16:00:44.478Z,4.53
2022-10-05T16:03:23.766Z,4.80
2022-10-05T16:09:08.178Z,3.58
2022-10-05T16:11:54.649Z,3.65
2022-10-05T16:14:38.457Z,4.03
2022-10-05T16:17:25.735Z,4.15
2022-10-05T16:20:15.248Z,3.47
2022-10-05T16:22:51.538Z,4.22
2022-10-05T16:25:23.744Z,5.68
2022-10-05T16:28:08.587Z,3.78
2022-10-05T16:30:51.911Z,3.95
2022-10-05T16:33:29.467Z,4.50
2022-10-05T16:36:07.879Z,5.72
2022-10-05T16:38:46.569Z,3.63
2022-10-05T16:41:21.470Z,3.90
2022-10-05T16:43:56.392Z,3.15
2022-10-05T16:46:33.501Z,3.50
2022-10-05T16:49:17.638Z,3.85
2022-10-05T16:51:57.869Z,3.60
2022-10-05T16:54:32.889Z,3.22
2022-10-05T16:57:08.113Z,4.57
2022-10-05T17:00:01.929Z,5.30
2022-10-05T17:02:47.815Z,4.38
2022-10-05T17:05:31.665Z,13.73
2022-10-05T17:08:15.240Z,6.05
2022-10-05T17:11:06.713Z,20.10
2022-10-05T17:13:57.861Z,12.50
2022-10-05T17:16:38.943Z,8.95
2022-10-05T17:19:29.104Z,8.48
2022-10-05T17:22:00.865Z,7.57
2022-10-05T17:24:46.459Z,10.35
2022-10-05T17:27:24.956Z,11.23
2022-10-05T17:29:55.535Z,13.35
2022-10-05T17:32:39.685Z,14.77
2022-10-05T17:35:19.141Z,9.35
2022-10-05T17:38:17.311Z,5.22
2022-10-05T17:41:11.676Z,6.20
2022-10-05T17:43:41.381Z,9.10
2022-10-05T17:46:12.384Z,5.80
2022-10-05T17:49:12.933Z,16.38
2022-10-05T17:52:22.288Z,8.52
2022-10-05T17:55:30.749Z,12.93
2022-10-05T17:58:04.325Z,13.25
2022-10-05T18:00:50.666Z,16.08
2022-10-05T18:03:42.252Z,10.25
2022-10-05T18:06:41.861Z,12.07
2022-10-05T18:09:35.015Z,6.43
2022-10-05T18:12:27.544Z,5.70
2022-10-05T18:15:02.747Z,8.15
2022-10-05T18:17:43.979Z,5.45
2022-10-05T18:20:32.014Z,6.78
2022-10-05T18:23:35.959Z,5.43
2022-10-05T18:26:21.588Z,4.30
2022-10-05T18:29:14.033Z,4.20
2022-10-05T18:31:51.450Z,5.95
2022-10-05T18:34:31.828Z,5.47
2022-10-05T18:37:13.164Z,3.55
2022-10-05T18:39:55.645Z,3.25
2022-10-05T18:42:33.086Z,3.42
2022-10-05T18:45:16.781Z,8.35
2022-10-05T18:47:54.558Z,2.90
2022-10-05T18:50:31.038Z,5.50
2022-10-05T18:53:13.463Z,7.25
2022-10-05T18:55:50.096Z,6.97
2022-10-05T18:58:27.138Z,4.15
2022-10-05T19:03:58.765Z,4.75
2022-10-05T19:06:31.327Z,14.45
2022-10-05T19:09:15.763Z,3.15
2022-10-05T19:11:55.106Z,13.23
2022-10-05T19:14:34.583Z,3.80
2022-10-05T19:17:23.470Z,5.80
2022-10-05T19:20:13.463Z,4.45
2022-10-05T19:23:23.986Z,6.60
2022-10-05T19:25:58.838Z,4.45
2022-10-05T19:28:35.684Z,6.38
2022-10-05T19:31:27.594Z,4.28
2022-10-05T19:34:16.586Z,8.02
2022-10-05T19:36:58.433Z,2.47
2022-10-05T19:39:38.815Z,3.50
2022-10-05T19:42:29.808Z,6.22
2022-10-05T19:45:11.257Z,3.30
2022-10-05T19:47:53.588Z,3.22
2022-10-05T19:50:32.981Z,3.00
2022-10-05T19:53:10.431Z,3.70
2022-10-05T19:55:43.776Z,5.40
2022-10-05T19:58:21.751Z,2.47
2022-10-05T20:01:00.099Z,4.25
2022-10-05T20:03:31.099Z,4.15
2022-10-05T20:06:02.441Z,2.58
2022-10-05T20:08:40.645Z,4.88
2022-10-05T20:11:14.858Z,2.75
2022-10-05T20:13:46.800Z,3.85
2022-10-05T20:16:48.270Z,3.30
2022-10-05T20:19:46.864Z,4.90
2022-10-05T20:22:36.128Z,4.65
2022-10-05T20:25:07.884Z,3.90
2022-10-05T20:27:48.698Z,3.08
2022-10-05T20:30:20.223Z,2.72
2022-10-05T20:32:51.394Z,5.20
2022-10-05T20:35:22.541Z,2.30
2022-10-05T20:37:51.852Z,4.10
2022-10-05T20:40:21.612Z,4.50
2022-10-05T20:42:51.777Z,3.10
2022-10-05T20:45:20.879Z,3.22
2022-10-05T20:47:51.438Z,4.20
2022-10-05T20:50:22.313Z,2.97
2022-10-05T20:52:51.529Z,3.53
2022-10-05T20:55:21.195Z,2.75
2022-10-05T20:57:50.465Z,4.05
2022-10-05T21:00:19.861Z,2.63
2022-10-05T21:02:50.589Z,2.65
2022-10-05T21:05:19.950Z,3.33
2022-10-05T21:07:49.109Z,3.08
2022-10-05T21:10:18.735Z,2.53
2022-10-05T21:12:47.865Z,5.15
2022-10-05T21:15:17.098Z,3.95
2022-10-05T21:17:46.314Z,3.63
2022-10-05T21:20:17.147Z,2.30
2022-10-05T21:22:46.320Z,2.22
2022-10-05T21:25:15.597Z,2.95
2022-10-05T21:27:44.706Z,2.17
2022-10-05T21:30:14.380Z,2.42
2022-10-05T21:32:44.836Z,2.13
2022-10-05T21:35:14.151Z,2.28
2022-10-05T21:37:44.773Z,2.72
2022-10-05T21:40:13.934Z,2.45
2022-10-05T21:42:43.098Z,4.18
2022-10-05T21:45:12.604Z,2.30
2022-10-05T21:47:42.204Z,3.50
2022-10-05T21:50:11.861Z,3.80
2022-10-05T21:52:41.105Z,2.13
2022-10-05T21:55:12.498Z,2.90
2022-10-05T21:57:42.379Z,2.30
2022-10-05T22:00:14.160Z,3.53
2022-10-05T22:02:43.383Z,2.10
2022-10-05T22:05:12.550Z,2.88
2022-10-05T22:07:41.877Z,3.33
2022-10-05T22:10:12.515Z,2.17
2022-10-05T22:12:43.576Z,2.75
2022-10-05T22:15:12.807Z,2.60
2022-10-05T22:17:42.502Z,3.75
2022-10-05T22:20:14.161Z,3.22
2022-10-05T22:22:43.300Z,2.13
2022-10-05T22:25:13.926Z,3.78
2022-10-05T22:27:43.332Z,2.00
2022-10-05T22:30:14.930Z,2.67
2022-10-05T22:32:44.669Z,2.42
2022-10-05T22:35:14.432Z,2.65
2022-10-05T22:37:43.578Z,2.70
2022-10-05T22:40:14.131Z,2.22
2022-10-05T22:42:43.399Z,2.08
2022-10-05T22:45:12.512Z,3.03
2022-10-05T22:47:42.790Z,2.40
2022-10-05T22:50:12.136Z,1.80
2022-10-05T22:52:42.517Z,2.85
2022-10-05T22:55:13.238Z,1.92
2022-10-05T22:57:43.499Z,3.15
2022-10-05T23:00:14.492Z,1.92
2022-10-05T23:02:45.080Z,2.83
2022-10-05T23:05:17.235Z,2.00
2022-10-05T23:07:47.813Z,2.65
2022-10-05T23:10:20.040Z,1.98
2022-10-05T23:13:00.607Z,1.95
2022-10-05T23:15:30.325Z,1.92
2022-10-05T23:17:59.449Z,2.70
2022-10-05T23:20:28.859Z,2.17
2022-10-05T23:22:58.065Z,2.88
2022-10-05T23:25:28.611Z,2.03
2022-10-05T23:27:57.808Z,3.03
2022-10-05T23:30:27.134Z,4.03
2022-10-05T23:32:56.738Z,2.40
2022-10-05T23:35:25.952Z,2.22
2022-10-05T23:37:55.094Z,2.03
2022-10-05T23:40:24.255Z,2.10
2022-10-05T23:42:54.847Z,1.95
2022-10-05T23:45:23.983Z,1.92
2022-10-05T23:47:53.237Z,2.67
2022-10-05T23:50:25.144Z,2.40
2022-10-05T23:52:54.288Z,1.70
2022-10-05T23:55:23.370Z,2.00
2022-10-05T23:57:52.540Z,2.25
